Nearby METAR Reports

 

KARR - Chicago/Aurora, Illinois, USA
Distance from station: S 8mi, 13km
Updated: 10/18/2019 12:52am
Clear
Clear
 Wind from calm
Wind: Calm
Temperature: 37°F , 3°C
Dew Point: 36°F , 2°C
Humidity: 93%
Barometer: 1017.3 hPa
Clouds: Clear
Visibility: 8 miles , 13 km
2019/10/18 05:52 KARR 180552Z AUTO 00000KT 8SM CLR 03/02 A3004 RMK AO2 SLP177 T00330017 10072 20028 401330000 53002 TSNO
KDKB - De Kalb, Illinois, USA
Distance from station: WNW 12mi, 19km
Updated: 10/18/2019 1:35am
Clear
Clear
 Wind from SSE
Wind: SSE 6 mph , 9 km/h
Temperature: 39°F , 4°C
Wind Chill: 35°F , 2°C
Dew Point: 37°F , 3°C
Humidity: 93%
Barometer: 1017.6 hPa
Clouds: Clear
Visibility: 10 miles , 16 km
2019/10/18 06:35 KDKB 180635Z AUTO 15005KT 10SM CLR 04/03 A3005 RMK AO2 T00380033
 
KDPA - Chicago/Dupage, Illinois, USA
Distance from station: E 12mi, 19km
Updated: 10/18/2019 12:52am
Clear
Clear
 Wind from calm
Wind: Calm
Temperature: 37°F , 3°C
Dew Point: 34°F , 1°C
Humidity: 87%
Barometer: 1017.3 hPa
Clouds: Clear
Visibility: 10 miles , 16 km
2019/10/18 05:52 KDPA 180552Z 00000KT 10SM CLR 03/01 A3004 RMK AO2 SLP176 T00330011 10089 20028 401390028 51001
KLOT - Romeoville/Chi, Illinois, USA
Distance from station: SE 28mi, 45km
Updated: 10/18/2019 1:35am
Clear
Clear
 Wind from SE
Wind: SE 3 mph , 6 km/h
Temperature: 39°F , 4°C
Dew Point: 37°F , 3°C
Humidity: 93%
Barometer: 1017.6 hPa
Clouds: Clear
Visibility: 10 miles , 16 km
2019/10/18 06:35 KLOT 180635Z AUTO 14003KT 10SM CLR 04/03 A3005 RMK AO2 T00420031
 
KORD - Chicago O'hare, Illinois, USA
Distance from station: ENE 29mi, 46km
Updated: 10/18/2019 12:51am
Clear
Clear
 Wind from calm
Wind: Calm
Temperature: 39°F , 4°C
Dew Point: 37°F , 3°C
Humidity: 93%
Barometer: 1017.3 hPa
Clouds: Clear
Visibility: 10 miles , 16 km
2019/10/18 05:51 KORD 180551Z 00000KT 10SM CLR 04/03 A3004 RMK AO2 SLP176 T00440033 10089 20044 401220044 56001
KJOT - Joliet, Illinois, USA
Distance from station: SSE 30mi, 48km
Updated: 10/18/2019 1:35am
Clear
Clear
 Wind from calm
Wind: Calm
Temperature: 37°F , 3°C
Dew Point: 37°F , 3°C
Humidity: 100%
Barometer: 1017.9 hPa
Clouds: Clear
Visibility: 10 miles , 16 km
2019/10/18 06:35 KJOT 180635Z AUTO 00000KT 10SM CLR 03/03 A3006 RMK AO2 T00310031
 
KRPJ - Rochelle/Koritz, Illinois, USA
Distance from station: W 31mi, 50km
Updated: 10/18/2019 1:35am
Clear
Clear
 Wind from SE
Wind: SE 5 mph , 7 km/h
Temperature: 37°F , 3°C
Wind Chill: 33°F , 1°C
Dew Point: 37°F , 3°C
Humidity: 100%
Barometer: 1017.6 hPa
Clouds: Clear
Visibility: 10 miles , 16 km
2019/10/18 06:35 KRPJ 180635Z AUTO 13004KT 10SM CLR 03/03 A3005 RMK AO2 T00280025
KC09 - Morris-Washburn, Illinois, USA
Distance from station: S 31mi, 51km
Updated: 10/18/2019 1:35am
Clear
Clear
 Wind from calm
Wind: Calm
Temperature: 39°F , 4°C
Dew Point: 39°F , 4°C
Humidity: 100%
Barometer: 1017.6 hPa
Clouds: Clear
Visibility: 7 miles , 11 km
2019/10/18 06:35 KC09 180635Z AUTO 00000KT 7SM CLR 04/04 A3005 RMK AO2 T00430037
 
KPWK - Palwaukee, Illinois, USA
Distance from station: ENE 34mi, 54km
Updated: 10/18/2019 12:52am
Clear
Clear
 Wind from calm
Wind: Calm
Temperature: 39°F , 4°C
Dew Point: 36°F , 2°C
Humidity: 87%
Barometer: 1017.9 hPa
Clouds: Clear
Visibility: 10 miles , 16 km
2019/10/18 05:52 KPWK 180552Z AUTO 00000KT 10SM CLR 04/02 A3006 RMK AO2 SLP182 T00440022 10089 20039 401280039 51001
KMDW - Chicago, Illinois, USA
Distance from station: E 38mi, 62km
Updated: 10/18/2019 12:53am
Clear
Clear
 Wind from calm
Wind: Calm
Temperature: 45°F , 7°C
Dew Point: 37°F , 3°C
Humidity: 76%
Barometer: 1017.3 hPa
Clouds: Clear
Visibility: 10 miles , 16 km
2019/10/18 05:53 KMDW 180553Z 00000KT 10SM CLR 07/03 A3004 RMK AO2 SLP177 T00670033 10094 20061 401330050 56001
 
KRFD - Rockford, Illinois, USA
Distance from station: NW 39mi, 62km
Updated: 10/18/2019 12:54am
Clear
Clear
 Wind from SSE
Wind: SSE 6 mph , 9 km/h
Temperature: 41°F , 5°C
Wind Chill: 37°F , 3°C
Dew Point: 37°F , 3°C
Humidity: 87%
Barometer: 1017.9 hPa
Clouds: Clear
Visibility: 10 miles , 16 km
2019/10/18 05:54 KRFD 180554Z 15005KT 10SM CLR 05/03 A3006 RMK AO2 SLP181 T00500028 10089 20050 401390028 53003
KUGN - Waukegan, Illinois, USA
Distance from station: NE 48mi, 78km
Updated: 10/18/2019 12:55am
Clear
Clear
 Wind from WSW
Wind: WSW 3 mph , 6 km/h
Temperature: 37°F , 3°C
Dew Point: 36°F , 2°C
Humidity: 93%
Barometer: 1017.3 hPa
Clouds: Clear
Visibility: 8 miles , 13 km
2019/10/18 05:55 KUGN 180555Z AUTO 24003KT 8SM CLR 03/02 A3004 RMK AO2 SLP176 T00330022 10083 20017 401110017 51001